sensor_id;sensor_type;location;lat;lon;timestamp;pressure;altitude;pressure_sealevel;temperature;humidity
9249;BME280;4660;41.768;26.198;2023-01-05T00:01:04;101886.59;;;9.73;100.00
9249;BME280;4660;41.768;26.198;2023-01-05T00:03:31;101890.75;;;10.02;100.00
9249;BME280;4660;41.768;26.198;2023-01-05T00:06:05;101892.94;;;10.23;100.00
9249;BME280;4660;41.768;26.198;2023-01-05T00:08:30;101890.97;;;10.37;100.00
9249;BME280;4660;41.768;26.198;2023-01-05T00:10:56;101855.56;;;10.31;100.00
9249;BME280;4660;41.768;26.198;2023-01-05T00:13:40;101890.75;;;10.28;100.00
9249;BME280;4660;41.768;26.198;2023-01-05T00:16:24;101880.50;;;10.20;100.00
9249;BME280;4660;41.768;26.198;2023-01-05T00:19:10;101878.91;;;10.30;100.00
9249;BME280;4660;41.768;26.198;2023-01-05T00:21:54;101878.69;;;10.33;100.00
9249;BME280;4660;41.768;26.198;2023-01-05T00:24:39;101865.97;;;10.35;100.00
9249;BME280;4660;41.768;26.198;2023-01-05T00:27:04;101857.22;;;10.08;100.00
9249;BME280;4660;41.768;26.198;2023-01-05T00:29:30;101880.75;;;10.04;100.00
9249;BME280;4660;41.768;26.198;2023-01-05T00:31:55;101871.56;;;10.19;100.00
9249;BME280;4660;41.768;26.198;2023-01-05T00:34:21;101861.50;;;10.23;100.00
9249;BME280;4660;41.768;26.198;2023-01-05T00:36:46;101864.16;;;10.36;100.00
9249;BME280;4660;41.768;26.198;2023-01-05T00:39:12;101867.16;;;10.44;100.00
9249;BME280;4660;41.768;26.198;2023-01-05T00:41:37;101824.66;;;9.87;100.00
9249;BME280;4660;41.768;26.198;2023-01-05T00:44:03;101870.13;;;9.90;100.00
9249;BME280;4660;41.768;26.198;2023-01-05T00:46:28;101863.00;;;9.63;100.00
9249;BME280;4660;41.768;26.198;2023-01-05T00:48:54;101843.69;;;9.58;100.00
9249;BME280;4660;41.768;26.198;2023-01-05T00:51:19;101849.28;;;9.81;100.00
9249;BME280;4660;41.768;26.198;2023-01-05T00:53:47;101847.56;;;9.67;100.00
9249;BME280;4660;41.768;26.198;2023-01-05T00:56:12;101856.13;;;9.98;100.00
9249;BME280;4660;41.768;26.198;2023-01-05T00:58:38;101850.06;;;10.07;100.00
9249;BME280;4660;41.768;26.198;2023-01-05T01:01:10;101850.91;;;10.20;100.00
9249;BME280;4660;41.768;26.198;2023-01-05T01:03:36;101836.44;;;10.23;100.00
9249;BME280;4660;41.768;26.198;2023-01-05T01:06:02;101832.00;;;10.22;100.00
9249;BME280;4660;41.768;26.198;2023-01-05T01:08:27;101832.00;;;10.22;100.00
9249;BME280;4660;41.768;26.198;2023-01-05T01:10:53;101816.63;;;10.11;100.00
9249;BME280;4660;41.768;26.198;2023-01-05T01:13:18;101828.25;;;10.11;100.00
9249;BME280;4660;41.768;26.198;2023-01-05T01:15:44;101826.53;;;10.10;100.00
9249;BME280;4660;41.768;26.198;2023-01-05T01:18:09;101826.78;;;10.07;100.00
9249;BME280;4660;41.768;26.198;2023-01-05T01:20:36;101822.25;;;10.08;100.00
9249;BME280;4660;41.768;26.198;2023-01-05T01:23:01;101818.59;;;9.96;100.00
9249;BME280;4660;41.768;26.198;2023-01-05T01:25:29;101817.75;;;9.83;100.00
9249;BME280;4660;41.768;26.198;2023-01-05T01:27:54;101816.72;;;9.73;100.00
9249;BME280;4660;41.768;26.198;2023-01-05T01:30:20;101788.47;;;9.29;100.00
9249;BME280;4660;41.768;26.198;2023-01-05T01:32:45;101806.06;;;9.33;100.00
9249;BME280;4660;41.768;26.198;2023-01-05T01:35:11;101776.16;;;8.99;100.00
9249;BME280;4660;41.768;26.198;2023-01-05T01:37:36;101766.81;;;8.79;100.00
9249;BME280;4660;41.768;26.198;2023-01-05T01:40:02;101795.31;;;9.07;100.00
9249;BME280;4660;41.768;26.198;2023-01-05T01:42:28;101781.56;;;9.25;100.00
9249;BME280;4660;41.768;26.198;2023-01-05T01:44:56;101765.00;;;9.05;100.00
9249;BME280;4660;41.768;26.198;2023-01-05T01:47:33;101774.19;;;8.76;100.00
9249;BME280;4660;41.768;26.198;2023-01-05T01:50:02;101778.94;;;8.85;100.00
9249;BME280;4660;41.768;26.198;2023-01-05T01:52:29;101774.25;;;9.01;100.00
9249;BME280;4660;41.768;26.198;2023-01-05T01:54:56;101773.38;;;9.14;100.00
9249;BME280;4660;41.768;26.198;2023-01-05T01:57:25;101752.94;;;8.73;100.00
9249;BME280;4660;41.768;26.198;2023-01-05T01:59:51;101779.25;;;8.80;100.00
9249;BME280;4660;41.768;26.198;2023-01-05T02:02:16;101781.09;;;8.93;100.00
9249;BME280;4660;41.768;26.198;2023-01-05T02:04:43;101779.56;;;8.76;100.00
9249;BME280;4660;41.768;26.198;2023-01-05T02:07:12;101773.84;;;8.68;100.00
9249;BME280;4660;41.768;26.198;2023-01-05T02:09:39;101754.59;;;8.48;100.00
9249;BME280;4660;41.768;26.198;2023-01-05T02:15:23;101757.69;;;8.82;100.00
9249;BME280;4660;41.768;26.198;2023-01-05T02:20:48;101763.53;;;9.01;100.00
9249;BME280;4660;41.768;26.198;2023-01-05T02:34:55;101736.13;;;8.96;100.00
9249;BME280;4660;41.768;26.198;2023-01-05T02:37:34;101724.22;;;8.88;100.00
9249;BME280;4660;41.768;26.198;2023-01-05T02:40:28;101712.81;;;8.84;100.00
9249;BME280;4660;41.768;26.198;2023-01-05T02:42:54;101716.47;;;8.83;100.00
9249;BME280;4660;41.768;26.198;2023-01-05T02:45:22;101723.25;;;8.89;100.00
9249;BME280;4660;41.768;26.198;2023-01-05T02:47:48;101723.03;;;8.39;100.00
9249;BME280;4660;41.768;26.198;2023-01-05T02:50:46;101712.34;;;8.52;100.00
9249;BME280;4660;41.768;26.198;2023-01-05T02:53:16;101716.44;;;8.58;100.00
9249;BME280;4660;41.768;26.198;2023-01-05T02:55:47;101706.56;;;8.71;100.00
9249;BME280;4660;41.768;26.198;2023-01-05T02:58:26;101713.59;;;8.46;100.00
9249;BME280;4660;41.768;26.198;2023-01-05T03:01:05;101703.38;;;8.12;100.00
9249;BME280;4660;41.768;26.198;2023-01-05T03:03:41;101715.19;;;8.36;100.00
9249;BME280;4660;41.768;26.198;2023-01-05T03:06:17;101706.66;;;8.30;100.00
9249;BME280;4660;41.768;26.198;2023-01-05T03:08:51;101709.31;;;8.44;100.00
9249;BME280;4660;41.768;26.198;2023-01-05T03:11:18;101705.72;;;8.58;100.00
9249;BME280;4660;41.768;26.198;2023-01-05T03:14:07;101711.94;;;8.58;100.00
9249;BME280;4660;41.768;26.198;2023-01-05T03:16:37;101700.41;;;8.56;100.00
9249;BME280;4660;41.768;26.198;2023-01-05T03:19:06;101705.72;;;8.58;100.00
9249;BME280;4660;41.768;26.198;2023-01-05T03:21:51;101703.09;;;8.43;100.00
9249;BME280;4660;41.768;26.198;2023-01-05T03:24:36;101687.44;;;8.23;100.00
9249;BME280;4660;41.768;26.198;2023-01-05T03:27:22;101690.31;;;8.20;100.00
9249;BME280;4660;41.768;26.198;2023-01-05T03:30:07;101690.47;;;8.31;100.00
9249;BME280;4660;41.768;26.198;2023-01-05T03:32:55;101701.91;;;8.20;100.00
9249;BME280;4660;41.768;26.198;2023-01-05T03:35:45;101693.09;;;7.91;100.00
9249;BME280;4660;41.768;26.198;2023-01-05T03:38:22;101682.63;;;7.74;100.00
9249;BME280;4660;41.768;26.198;2023-01-05T03:40:56;101677.84;;;7.79;100.00
9249;BME280;4660;41.768;26.198;2023-01-05T03:43:22;101686.19;;;8.02;100.00
9249;BME280;4660;41.768;26.198;2023-01-05T03:45:53;101686.78;;;7.92;100.00
9249;BME280;4660;41.768;26.198;2023-01-05T03:48:20;101681.19;;;7.68;100.00
9249;BME280;4660;41.768;26.198;2023-01-05T03:50:46;101677.38;;;7.99;100.00
9249;BME280;4660;41.768;26.198;2023-01-05T03:53:12;101676.97;;;8.06;100.00
9249;BME280;4660;41.768;26.198;2023-01-05T03:55:38;101665.91;;;7.97;100.00
9249;BME280;4660;41.768;26.198;2023-01-05T03:58:03;101687.50;;;8.09;100.00
9249;BME280;4660;41.768;26.198;2023-01-05T04:00:29;101665.44;;;7.91;100.00
9249;BME280;4660;41.768;26.198;2023-01-05T04:02:54;101659.78;;;7.95;100.00
9249;BME280;4660;41.768;26.198;2023-01-05T04:05:20;101662.94;;;8.02;100.00
9249;BME280;4660;41.768;26.198;2023-01-05T04:07:45;101653.56;;;7.95;100.00
9249;BME280;4660;41.768;26.198;2023-01-05T04:10:11;101678.09;;;8.16;100.00
9249;BME280;4660;41.768;26.198;2023-01-05T04:12:36;101657.69;;;8.00;100.00
9249;BME280;4660;41.768;26.198;2023-01-05T04:15:03;101655.84;;;8.01;100.00
9249;BME280;4660;41.768;26.198;2023-01-05T04:17:29;101651.47;;;8.13;100.00
9249;BME280;4660;41.768;26.198;2023-01-05T04:19:54;101651.63;;;8.24;100.00
9249;BME280;4660;41.768;26.198;2023-01-05T04:22:20;101662.25;;;8.25;100.00
9249;BME280;4660;41.768;26.198;2023-01-05T04:24:45;101642.03;;;8.07;100.00
9249;BME280;4660;41.768;26.198;2023-01-05T04:27:11;101639.34;;;8.07;100.00
9249;BME280;4660;41.768;26.198;2023-01-05T04:29:36;101650.31;;;8.17;100.00
9249;BME280;4660;41.768;26.198;2023-01-05T04:32:02;101653.53;;;7.82;100.00
9249;BME280;4660;41.768;26.198;2023-01-05T04:34:28;101651.81;;;7.81;100.00
9249;BME280;4660;41.768;26.198;2023-01-05T04:36:53;101661.19;;;7.74;100.00
9249;BME280;4660;41.768;26.198;2023-01-05T04:39:19;101650.09;;;7.80;100.00
9249;BME280;4660;41.768;26.198;2023-01-05T04:41:44;101651.69;;;7.83;100.00
9249;BME280;4660;41.768;26.198;2023-01-05T04:44:10;101640.09;;;7.55;100.00
9249;BME280;4660;41.768;26.198;2023-01-05T04:46:35;101622.34;;;7.40;100.00
9249;BME280;4660;41.768;26.198;2023-01-05T04:49:01;101655.97;;;7.85;100.00
9249;BME280;4660;41.768;26.198;2023-01-05T04:51:26;101659.03;;;7.93;100.00
9249;BME280;4660;41.768;26.198;2023-01-05T04:53:52;101652.81;;;7.66;100.00
9249;BME280;4660;41.768;26.198;2023-01-05T04:56:18;101635.53;;;7.57;100.00
9249;BME280;4660;41.768;26.198;2023-01-05T04:58:43;101649.13;;;7.40;100.00
9249;BME280;4660;41.768;26.198;2023-01-05T05:01:09;101643.63;;;7.14;100.00
9249;BME280;4660;41.768;26.198;2023-01-05T05:03:35;101633.00;;;7.13;100.00
9249;BME280;4660;41.768;26.198;2023-01-05T05:06:07;101630.69;;;6.93;100.00
9249;BME280;4660;41.768;26.198;2023-01-05T05:08:34;101642.34;;;6.77;100.00
9249;BME280;4660;41.768;26.198;2023-01-05T05:11:04;101564.22;;;6.44;100.00
9249;BME280;4660;41.768;26.198;2023-01-05T05:13:31;101631.47;;;6.80;100.00
9249;BME280;4660;41.768;26.198;2023-01-05T05:16:21;101599.06;;;6.56;100.00
9249;BME280;4660;41.768;26.198;2023-01-05T05:19:19;101504.03;;;5.78;100.00
9249;BME280;4660;41.768;26.198;2023-01-05T05:21:51;101579.28;;;6.30;100.00
9249;BME280;4660;41.768;26.198;2023-01-05T05:24:20;101540.13;;;6.15;100.00
9249;BME280;4660;41.768;26.198;2023-01-05T05:26:49;101639.50;;;7.09;100.00
9249;BME280;4660;41.768;26.198;2023-01-05T05:29:18;101511.41;;;6.19;100.00
9249;BME280;4660;41.768;26.198;2023-01-05T05:31:53;101574.59;;;6.34;100.00
9249;BME280;4660;41.768;26.198;2023-01-05T05:34:21;101588.13;;;6.17;100.00
9249;BME280;4660;41.768;26.198;2023-01-05T05:36:48;101511.59;;;5.56;100.00
9249;BME280;4660;41.768;26.198;2023-01-05T05:39:14;101599.72;;;6.01;100.00
9249;BME280;4660;41.768;26.198;2023-01-05T05:41:43;101589.13;;;5.84;100.00
9249;BME280;4660;41.768;26.198;2023-01-05T05:44:11;101580.47;;;5.65;100.00
9249;BME280;4660;41.768;26.198;2023-01-05T05:47:00;101594.31;;;5.87;100.00
9249;BME280;4660;41.768;26.198;2023-01-05T05:49:44;101556.94;;;5.71;100.00
9249;BME280;4660;41.768;26.198;2023-01-05T05:52:25;101561.72;;;5.50;100.00
9249;BME280;4660;41.768;26.198;2023-01-05T05:55:26;101596.97;;;5.71;100.00
9249;BME280;4660;41.768;26.198;2023-01-05T05:58:03;101570.81;;;5.62;100.00
9249;BME280;4660;41.768;26.198;2023-01-05T06:00:38;101548.88;;;5.41;100.00
9249;BME280;4660;41.768;26.198;2023-01-05T06:03:13;101655.00;;;6.15;100.00
9249;BME280;4660;41.768;26.198;2023-01-05T06:05:48;101568.44;;;5.42;100.00
9249;BME280;4660;41.768;26.198;2023-01-05T06:08:30;101630.88;;;6.17;100.00
9249;BME280;4660;41.768;26.198;2023-01-05T06:10:57;101574.91;;;5.84;100.00
9249;BME280;4660;41.768;26.198;2023-01-05T06:13:28;101647.16;;;6.12;100.00
9249;BME280;4660;41.768;26.198;2023-01-05T06:15:58;101553.78;;;5.49;100.00
9249;BME280;4660;41.768;26.198;2023-01-05T06:18:27;101608.66;;;5.85;100.00
9249;BME280;4660;41.768;26.198;2023-01-05T06:20:59;101602.75;;;6.25;100.00
9249;BME280;4660;41.768;26.198;2023-01-05T07:34:21;101612.34;;;8.10;100.00
9249;BME280;4660;41.768;26.198;2023-01-05T07:38:02;101624.31;;;7.65;100.00
9249;BME280;4660;41.768;26.198;2023-01-05T10:07:37;101311.22;;;11.91;100.00
9249;BME280;4660;41.768;26.198;2023-01-05T11:12:37;101120.47;;;13.17;100.00
9249;BME280;4660;41.768;26.198;2023-01-05T11:16:17;101204.66;;;13.96;100.00
9249;BME280;4660;41.768;26.198;2023-01-05T11:21:58;101180.69;;;14.01;100.00
9249;BME280;4660;41.768;26.198;2023-01-05T11:24:46;101165.09;;;13.68;100.00
9249;BME280;4660;41.768;26.198;2023-01-05T11:30:18;101192.28;;;14.12;100.00
9249;BME280;4660;41.768;26.198;2023-01-05T11:33:42;101100.88;;;13.52;100.00
9249;BME280;4660;41.768;26.198;2023-01-05T11:36:38;101199.50;;;14.39;100.00
9249;BME280;4660;41.768;26.198;2023-01-05T12:16:54;101063.66;;;14.17;100.00
9249;BME280;4660;41.768;26.198;2023-01-05T12:22:57;101117.28;;;15.01;100.00
9249;BME280;4660;41.768;26.198;2023-01-05T12:36:56;101123.47;;;14.68;100.00
9249;BME280;4660;41.768;26.198;2023-01-05T14:39:35;101072.59;;;13.46;100.00
9249;BME280;4660;41.768;26.198;2023-01-05T14:42:36;101054.06;;;13.14;100.00
9249;BME280;4660;41.768;26.198;2023-01-05T15:21:25;100923.13;;;11.41;100.00
9249;BME280;4660;41.768;26.198;2023-01-05T15:31:02;101014.47;;;11.73;100.00
9249;BME280;4660;41.768;26.198;2023-01-05T15:41:12;100937.41;;;11.12;100.00
9249;BME280;4660;41.768;26.198;2023-01-05T20:08:33;101044.03;;;7.05;100.00
9249;BME280;4660;41.768;26.198;2023-01-05T20:52:37;101017.06;;;6.58;100.00
9249;BME280;4660;41.768;26.198;2023-01-05T21:05:09;100929.84;;;6.06;100.00
9249;BME280;4660;41.768;26.198;2023-01-05T21:08:29;101059.38;;;6.90;100.00
9249;BME280;4660;41.768;26.198;2023-01-05T21:11:30;101026.91;;;6.45;100.00
9249;BME280;4660;41.768;26.198;2023-01-05T21:22:24;100941.28;;;5.96;100.00
9249;BME280;4660;41.768;26.198;2023-01-05T21:32:56;101059.41;;;6.65;100.00
9249;BME280;4660;41.768;26.198;2023-01-05T21:35:41;101066.03;;;6.72;100.00
9249;BME280;4660;41.768;26.198;2023-01-05T21:42:44;101036.63;;;6.33;100.00
9249;BME280;4660;41.768;26.198;2023-01-05T21:45:53;101035.22;;;6.15;100.00
9249;BME280;4660;41.768;26.198;2023-01-05T21:48:43;100999.19;;;5.95;100.00
9249;BME280;4660;41.768;26.198;2023-01-05T21:51:42;100977.03;;;5.80;100.00
9249;BME280;4660;41.768;26.198;2023-01-05T21:54:49;101051.34;;;6.14;100.00
9249;BME280;4660;41.768;26.198;2023-01-05T21:58:09;101070.78;;;6.28;100.00
9249;BME280;4660;41.768;26.198;2023-01-05T22:01:26;100912.25;;;5.39;100.00
9249;BME280;4660;41.768;26.198;2023-01-05T22:03:55;101011.47;;;5.98;100.00
9249;BME280;4660;41.768;26.198;2023-01-05T22:06:21;100920.81;;;5.44;100.00
9249;BME280;4660;41.768;26.198;2023-01-05T22:08:47;100941.97;;;5.60;100.00
9249;BME280;4660;41.768;26.198;2023-01-05T22:11:16;100978.13;;;5.91;100.00
9249;BME280;4660;41.768;26.198;2023-01-05T22:13:41;100985.00;;;5.68;100.00
9249;BME280;4660;41.768;26.198;2023-01-05T22:16:08;101024.69;;;5.60;100.00
9249;BME280;4660;41.768;26.198;2023-01-05T22:18:36;101005.75;;;5.50;100.00
9249;BME280;4660;41.768;26.198;2023-01-05T22:21:04;101057.81;;;5.97;100.00
9249;BME280;4660;41.768;26.198;2023-01-05T22:23:31;100939.84;;;4.98;100.00
9249;BME280;4660;41.768;26.198;2023-01-05T22:26:04;100953.59;;;5.19;100.00
9249;BME280;4660;41.768;26.198;2023-01-05T22:28:33;101027.50;;;5.71;100.00
9249;BME280;4660;41.768;26.198;2023-01-05T22:31:10;100948.41;;;5.03;100.00
9249;BME280;4660;41.768;26.198;2023-01-05T22:33:38;101005.41;;;5.42;100.00
9249;BME280;4660;41.768;26.198;2023-01-05T22:36:05;100981.09;;;5.46;100.00
9249;BME280;4660;41.768;26.198;2023-01-05T22:38:34;100954.72;;;5.42;100.00
9249;BME280;4660;41.768;26.198;2023-01-05T22:41:01;100956.66;;;5.40;100.00
9249;BME280;4660;41.768;26.198;2023-01-05T22:43:30;100959.78;;;5.19;100.00
9249;BME280;4660;41.768;26.198;2023-01-05T22:46:03;100950.00;;;5.06;100.00
9249;BME280;4660;41.768;26.198;2023-01-05T22:48:37;100939.75;;;4.73;100.00
9249;BME280;4660;41.768;26.198;2023-01-05T22:51:03;101081.56;;;6.01;100.00
9249;BME280;4660;41.768;26.198;2023-01-05T22:53:30;101071.72;;;5.48;100.00
9249;BME280;4660;41.768;26.198;2023-01-05T22:55:58;100959.34;;;4.72;100.00
9249;BME280;4660;41.768;26.198;2023-01-05T22:58:24;100967.91;;;4.62;100.00
9249;BME280;4660;41.768;26.198;2023-01-05T23:00:50;100988.84;;;4.54;100.00
9249;BME280;4660;41.768;26.198;2023-01-05T23:03:19;101072.75;;;5.18;100.00
9249;BME280;4660;41.768;26.198;2023-01-05T23:05:45;101080.72;;;5.33;100.00
9249;BME280;4660;41.768;26.198;2023-01-05T23:08:11;101086.91;;;5.33;100.00
9249;BME280;4660;41.768;26.198;2023-01-05T23:10:37;101050.06;;;5.25;100.00
9249;BME280;4660;41.768;26.198;2023-01-05T23:13:03;101085.81;;;5.50;100.00
9249;BME280;4660;41.768;26.198;2023-01-05T23:15:29;101063.06;;;5.44;100.00
9249;BME280;4660;41.768;26.198;2023-01-05T23:17:55;101076.88;;;5.51;100.00
9249;BME280;4660;41.768;26.198;2023-01-05T23:20:20;101067.19;;;5.36;100.00
9249;BME280;4660;41.768;26.198;2023-01-05T23:22:46;101028.25;;;5.19;100.00
9249;BME280;4660;41.768;26.198;2023-01-05T23:25:11;101053.94;;;5.34;100.00
9249;BME280;4660;41.768;26.198;2023-01-05T23:27:37;101072.72;;;5.33;100.00
9249;BME280;4660;41.768;26.198;2023-01-05T23:30:04;101054.19;;;5.17;100.00
9249;BME280;4660;41.768;26.198;2023-01-05T23:32:30;101068.09;;;5.22;100.00
9249;BME280;4660;41.768;26.198;2023-01-05T23:34:56;101050.28;;;5.22;100.00
9249;BME280;4660;41.768;26.198;2023-01-05T23:37:21;101037.84;;;4.94;100.00
9249;BME280;4660;41.768;26.198;2023-01-05T23:39:47;101066.03;;;4.84;100.00
9249;BME280;4660;41.768;26.198;2023-01-05T23:42:12;101075.34;;;4.77;100.00
9249;BME280;4660;41.768;26.198;2023-01-05T23:44:58;101034.25;;;4.67;100.00
9249;BME280;4660;41.768;26.198;2023-01-05T23:47:23;101074.50;;;4.77;100.00
9249;BME280;4660;41.768;26.198;2023-01-05T23:49:49;101066.13;;;4.97;100.00
9249;BME280;4660;41.768;26.198;2023-01-05T23:52:14;101064.22;;;4.85;100.00
9249;BME280;4660;41.768;26.198;2023-01-05T23:54:40;101084.13;;;4.93;100.00
9249;BME280;4660;41.768;26.198;2023-01-05T23:57:05;101077.75;;;4.82;100.00
9249;BME280;4660;41.768;26.198;2023-01-05T23:59:31;101078.41;;;4.85;100.00
